createdAt,value
2023-05-18T00:00:44.970Z,102691.16
2023-05-18T00:01:23.365Z,102732.59
2023-05-18T00:03:12.796Z,102691.13
2023-05-18T00:03:54.880Z,102734.41
2023-05-18T00:05:42.893Z,102688.59
2023-05-18T00:06:22.553Z,102737.97
2023-05-18T00:08:10.951Z,102690.28
2023-05-18T00:08:49.706Z,102733.63
2023-05-18T00:10:38.798Z,102696.34
2023-05-18T00:11:17.780Z,102734.56
2023-05-18T00:13:08.735Z,102685.44
2023-05-18T00:13:44.939Z,102739.91
2023-05-18T00:15:36.460Z,102696.53
2023-05-18T00:16:13.638Z,102738.22
2023-05-18T00:18:04.288Z,102697.13
2023-05-18T00:18:40.882Z,102736.44
2023-05-18T00:20:32.118Z,102693.53
2023-05-18T00:21:09.159Z,102738.25
2023-05-18T00:23:00.715Z,102699.00
2023-05-18T00:23:39.416Z,102736.56
2023-05-18T00:25:28.594Z,102693.59
2023-05-18T00:26:06.619Z,102736.59
2023-05-18T00:27:56.507Z,102687.97
2023-05-18T00:28:33.858Z,102743.72
2023-05-18T00:30:25.661Z,102695.50
2023-05-18T00:31:00.980Z,102734.91
2023-05-18T00:32:53.404Z,102687.97
2023-05-18T00:33:28.191Z,102734.97
2023-05-18T00:35:21.445Z,102686.72
2023-05-18T00:35:57.246Z,102740.28
2023-05-18T00:37:49.400Z,102688.56
2023-05-18T00:38:24.760Z,102746.50
2023-05-18T00:40:17.656Z,102695.88
2023-05-18T00:40:51.940Z,102739.50
2023-05-18T00:42:48.526Z,102694.63
2023-05-18T00:43:19.173Z,102743.97
2023-05-18T00:45:16.275Z,102694.06
2023-05-18T00:45:46.320Z,102740.47
2023-05-18T00:47:44.321Z,102699.31
2023-05-18T00:48:13.454Z,102750.22
2023-05-18T00:50:13.358Z,102702.88
2023-05-18T00:50:40.798Z,102751.13
2023-05-18T00:52:41.797Z,102694.28
2023-05-18T00:53:10.542Z,102745.88
2023-05-18T00:55:09.730Z,102697.22
2023-05-18T00:55:38.031Z,102751.22
2023-05-18T00:57:38.379Z,102694.91
2023-05-18T00:58:05.456Z,102747.72
2023-05-18T01:00:10.712Z,102695.34
2023-05-18T01:00:33.796Z,102753.97
2023-05-18T01:02:42.757Z,102695.16
2023-05-18T01:03:02.250Z,102749.56
2023-05-18T01:05:11.242Z,102693.72
2023-05-18T01:05:29.749Z,102738.09
2023-05-18T01:07:42.629Z,102699.59
2023-05-18T01:07:57.907Z,102747.84
2023-05-18T01:10:11.754Z,102697.53
2023-05-18T01:10:25.189Z,102745.22
2023-05-18T01:13:01.398Z,102704.19
2023-05-18T01:13:03.912Z,102743.50
2023-05-18T01:15:37.367Z,102701.28
2023-05-18T01:15:37.412Z,102740.88
2023-05-18T01:18:15.125Z,102707.34
2023-05-18T01:18:22.436Z,102748.00
2023-05-18T01:20:57.637Z,102752.44
2023-05-18T01:21:43.207Z,102704.63
2023-05-18T01:23:52.429Z,102757.78
2023-05-18T01:24:36.355Z,102706.47
2023-05-18T01:26:29.579Z,102750.78
2023-05-18T01:27:06.554Z,102712.75
2023-05-18T01:29:00.466Z,102755.22
2023-05-18T01:29:35.523Z,102711.28
2023-05-18T01:31:28.199Z,102758.81
2023-05-18T01:32:07.915Z,102715.47
2023-05-18T01:33:55.953Z,102754.44
2023-05-18T01:34:35.631Z,102707.50
2023-05-18T01:36:23.125Z,102759.78
2023-05-18T01:37:03.280Z,102713.19
2023-05-18T01:38:51.355Z,102751.91
2023-05-18T01:39:30.948Z,102712.97
2023-05-18T01:41:24.313Z,102755.47
2023-05-18T01:42:06.430Z,102700.84
2023-05-18T01:44:34.062Z,102753.75
2023-05-18T01:44:44.966Z,102714.03
2023-05-18T01:47:10.655Z,102752.03
2023-05-18T01:47:17.324Z,102704.63
2023-05-18T01:49:41.345Z,102750.28
2023-05-18T01:49:57.086Z,102710.47
2023-05-18T01:52:17.023Z,102757.34
2023-05-18T01:52:43.428Z,102705.06
2023-05-18T01:54:50.014Z,102762.72
2023-05-18T01:55:11.784Z,102702.13
2023-05-18T01:57:20.634Z,102750.34
2023-05-18T01:57:43.302Z,102710.72
2023-05-18T01:59:48.202Z,102757.44
2023-05-18T02:00:11.876Z,102702.56
2023-05-18T02:02:15.661Z,102753.94
2023-05-18T02:02:47.342Z,102699.63
2023-05-18T02:04:42.944Z,102754.88
2023-05-18T02:05:17.371Z,102703.78
2023-05-18T02:07:12.240Z,102750.47
2023-05-18T02:07:47.468Z,102698.97
2023-05-18T02:09:41.173Z,102755.75
2023-05-18T02:10:16.041Z,102697.53
2023-05-18T02:12:08.391Z,102754.88
2023-05-18T02:12:43.739Z,102691.66
2023-05-18T02:14:35.565Z,102748.72
2023-05-18T02:15:11.791Z,102702.34
2023-05-18T02:17:02.945Z,102748.72
2023-05-18T02:17:39.613Z,102693.34
2023-05-18T02:19:33.186Z,102753.16
2023-05-18T02:20:11.950Z,102696.28
2023-05-18T02:22:00.690Z,102746.97
2023-05-18T02:22:39.656Z,102693.34
2023-05-18T02:24:28.005Z,102741.69
2023-05-18T02:25:07.684Z,102689.16
2023-05-18T02:26:55.065Z,102746.13
2023-05-18T02:27:36.667Z,102695.44
2023-05-18T02:29:22.125Z,102743.50
2023-05-18T02:30:08.917Z,102694.19
2023-05-18T02:31:49.856Z,102747.03
2023-05-18T02:32:39.812Z,102693.75
2023-05-18T02:34:17.317Z,102739.13
2023-05-18T02:35:08.649Z,102686.88
2023-05-18T02:36:46.123Z,102739.13
2023-05-18T02:37:40.114Z,102688.75
2023-05-18T02:39:13.447Z,102738.28
2023-05-18T02:40:12.584Z,102683.75
2023-05-18T02:41:40.589Z,102738.31
2023-05-18T02:42:41.297Z,102694.59
2023-05-18T02:44:07.745Z,102735.72
2023-05-18T02:45:09.364Z,102690.84
2023-05-18T02:46:34.910Z,102734.84
2023-05-18T02:47:37.367Z,102677.91
2023-05-18T02:49:02.036Z,102734.88
2023-05-18T02:50:05.408Z,102678.28
2023-05-18T02:51:30.326Z,102737.53
2023-05-18T02:52:34.669Z,102676.63
2023-05-18T02:53:57.765Z,102727.88
2023-05-18T02:55:03.464Z,102675.38
2023-05-18T02:56:25.319Z,102734.97
2023-05-18T02:57:57.151Z,102680.78
2023-05-18T02:59:08.820Z,102734.97
2023-05-18T03:00:37.051Z,102685.38
2023-05-18T03:01:40.034Z,102730.59
2023-05-18T03:03:05.006Z,102679.13
2023-05-18T03:04:07.851Z,102737.66
2023-05-18T03:05:34.014Z,102678.69
2023-05-18T03:06:38.548Z,102735.03
2023-05-18T03:08:02.499Z,102682.44
2023-05-18T03:09:05.793Z,102735.03
2023-05-18T03:10:31.847Z,102675.09
2023-05-18T03:11:38.714Z,102733.25
2023-05-18T03:12:59.584Z,102679.72
2023-05-18T03:14:06.012Z,102731.53
2023-05-18T03:15:27.377Z,102682.03
2023-05-18T03:16:33.361Z,102735.97
2023-05-18T03:17:55.943Z,102684.72
2023-05-18T03:19:02.280Z,102732.41
2023-05-18T03:20:23.786Z,102686.19
2023-05-18T03:21:37.019Z,102735.06
2023-05-18T03:22:52.167Z,102693.31
2023-05-18T03:24:04.712Z,102734.22
2023-05-18T03:25:20.266Z,102684.50
2023-05-18T03:26:34.206Z,102736.88
2023-05-18T03:27:51.625Z,102694.09
2023-05-18T03:29:02.081Z,102736.88
2023-05-18T03:30:20.190Z,102685.09
2023-05-18T03:31:29.584Z,102736.88
2023-05-18T03:32:51.020Z,102684.69
2023-05-18T03:33:59.130Z,102735.13
2023-05-18T03:35:18.764Z,102678.19
2023-05-18T03:36:28.119Z,102738.63
2023-05-18T03:37:46.717Z,102678.81
2023-05-18T03:38:55.356Z,102728.06
2023-05-18T03:40:16.305Z,102684.00
2023-05-18T03:41:22.581Z,102740.38
2023-05-18T03:42:45.558Z,102684.88
2023-05-18T03:43:50.891Z,102731.56
2023-05-18T03:45:13.773Z,102681.09
2023-05-18T03:46:18.302Z,102733.34
2023-05-18T03:47:42.610Z,102684.63
2023-05-18T03:48:45.612Z,102735.06
2023-05-18T03:50:11.027Z,102680.47
2023-05-18T03:51:13.227Z,102729.78
2023-05-18T03:52:40.157Z,102684.41
2023-05-18T03:53:42.166Z,102735.06
2023-05-18T03:55:09.086Z,102689.44
2023-05-18T03:56:09.257Z,102738.63
2023-05-18T03:57:37.010Z,102683.41
2023-05-18T03:58:36.773Z,102738.63
2023-05-18T04:00:10.412Z,102687.34
2023-05-18T04:01:04.933Z,102741.25
2023-05-18T04:02:44.982Z,102693.63
2023-05-18T04:03:34.556Z,102745.63
2023-05-18T04:05:15.370Z,102692.75
2023-05-18T04:06:01.992Z,102743.00
2023-05-18T04:07:46.756Z,102696.09
2023-05-18T04:08:30.420Z,102742.13
2023-05-18T04:10:14.949Z,102692.34
2023-05-18T04:10:59.036Z,102749.19
2023-05-18T04:12:43.959Z,102695.28
2023-05-18T04:13:26.162Z,102743.91
2023-05-18T04:15:14.573Z,102698.81
2023-05-18T04:15:53.337Z,102752.72
2023-05-18T04:17:45.849Z,102697.78
2023-05-18T04:18:20.455Z,102750.06
2023-05-18T04:20:14.778Z,102705.66
2023-05-18T04:20:47.705Z,102758.00
2023-05-18T04:22:46.610Z,102698.34
2023-05-18T04:23:14.802Z,102756.19
2023-05-18T04:25:15.921Z,102705.22
2023-05-18T04:25:41.991Z,102752.66
2023-05-18T04:27:48.422Z,102713.97
2023-05-18T04:28:10.434Z,102763.22
2023-05-18T04:30:18.851Z,102711.13
2023-05-18T04:30:37.796Z,102761.41
2023-05-18T04:32:48.075Z,102714.44
2023-05-18T04:33:06.928Z,102761.41
2023-05-18T04:35:16.002Z,102716.53
2023-05-18T04:35:34.199Z,102764.91
2023-05-18T04:37:43.761Z,102708.44
2023-05-18T04:38:02.591Z,102769.25
2023-05-18T04:40:18.081Z,102716.19
2023-05-18T04:40:33.872Z,102769.19
2023-05-18T04:42:48.259Z,102722.84
2023-05-18T04:43:01.729Z,102773.50
2023-05-18T04:45:20.583Z,102727.25
2023-05-18T04:45:32.025Z,102777.84
2023-05-18T04:47:54.161Z,102718.91
2023-05-18T04:48:01.977Z,102776.81
2023-05-18T04:50:23.887Z,102724.31
2023-05-18T04:50:29.596Z,102777.63
2023-05-18T04:52:52.532Z,102722.38
2023-05-18T04:52:57.837Z,102767.84
2023-05-18T04:55:27.672Z,102778.34
2023-05-18T04:55:29.467Z,102721.56
2023-05-18T04:57:57.998Z,102773.00
2023-05-18T04:58:10.437Z,102727.03
2023-05-18T05:00:27.960Z,102780.00
2023-05-18T05:00:38.531Z,102723.72
2023-05-18T05:02:56.507Z,102772.91
2023-05-18T05:03:06.874Z,102725.56
2023-05-18T05:05:25.028Z,102774.63
2023-05-18T05:05:35.217Z,102728.72
2023-05-18T05:07:53.803Z,102779.88
2023-05-18T05:08:04.759Z,102730.00
2023-05-18T05:10:21.895Z,102774.56
2023-05-18T05:10:32.559Z,102733.97
2023-05-18T05:12:50.419Z,102780.66
2023-05-18T05:13:00.765Z,102734.97
2023-05-18T05:15:18.800Z,102785.06
2023-05-18T05:15:28.613Z,102735.13
2023-05-18T05:17:49.559Z,102792.94
2023-05-18T05:17:57.158Z,102736.63
2023-05-18T05:20:17.183Z,102786.66
2023-05-18T05:20:24.930Z,102730.41
2023-05-18T05:22:44.554Z,102795.44
2023-05-18T05:22:53.966Z,102734.53
2023-05-18T05:25:14.315Z,102788.28
2023-05-18T05:25:25.184Z,102733.50
2023-05-18T05:27:41.674Z,102790.84
2023-05-18T05:27:53.302Z,102737.88
2023-05-18T05:30:09.406Z,102788.09
2023-05-18T05:30:22.396Z,102733.91
2023-05-18T05:32:37.795Z,102785.38
2023-05-18T05:32:50.218Z,102734.97
2023-05-18T05:35:07.256Z,102782.63
2023-05-18T05:35:18.184Z,102731.88
2023-05-18T05:37:36.087Z,102789.59
2023-05-18T05:37:46.913Z,102733.72
2023-05-18T05:40:06.284Z,102798.38
2023-05-18T05:40:15.761Z,102738.75
2023-05-18T05:42:37.710Z,102798.31
2023-05-18T05:42:46.131Z,102738.38
2023-05-18T05:45:06.020Z,102787.63
2023-05-18T05:45:14.346Z,102734.59
2023-05-18T05:47:38.630Z,102790.16
2023-05-18T05:47:46.535Z,102736.69
2023-05-18T05:50:06.566Z,102783.88
2023-05-18T05:50:15.742Z,102726.69
2023-05-18T05:52:34.525Z,102781.13
2023-05-18T05:52:44.499Z,102735.66
2023-05-18T05:55:02.245Z,102785.50
2023-05-18T05:55:12.497Z,102732.94
2023-05-18T05:57:30.740Z,102786.25
2023-05-18T05:57:42.777Z,102733.34
2023-05-18T05:59:57.874Z,102789.72
2023-05-18T06:00:12.864Z,102732.34
2023-05-18T06:02:26.511Z,102786.09
2023-05-18T06:02:52.123Z,102733.38
2023-05-18T06:04:54.838Z,102793.09
2023-05-18T06:05:27.254Z,102739.03
2023-05-18T06:07:21.984Z,102790.38
2023-05-18T06:07:57.321Z,102728.38
2023-05-18T06:09:50.261Z,102790.34
2023-05-18T06:10:25.073Z,102732.19
2023-05-18T06:12:18.677Z,102790.25
2023-05-18T06:12:53.440Z,102736.78
2023-05-18T06:14:45.783Z,102790.22
2023-05-18T06:15:24.529Z,102735.34
2023-05-18T06:17:13.073Z,102785.75
2023-05-18T06:17:52.310Z,102736.84
2023-05-18T06:19:40.128Z,102783.00
2023-05-18T06:20:20.196Z,102741.41
2023-05-18T06:22:07.333Z,102788.25
2023-05-18T06:22:48.099Z,102739.75
2023-05-18T06:24:43.671Z,102782.91
2023-05-18T06:25:33.063Z,102730.16
2023-05-18T06:27:36.355Z,102784.59
2023-05-18T06:28:26.993Z,102737.25
2023-05-18T06:30:19.957Z,102782.69
2023-05-18T06:31:01.379Z,102743.09
2023-05-18T06:33:02.064Z,102786.16
2023-05-18T06:33:47.004Z,102743.94
2023-05-18T06:35:29.569Z,102788.63
2023-05-18T06:36:16.771Z,102753.13
2023-05-18T06:37:56.950Z,102785.81
2023-05-18T06:38:44.792Z,102748.97
2023-05-18T06:40:24.142Z,102788.38
2023-05-18T06:41:12.462Z,102750.41
2023-05-18T06:42:51.727Z,102785.47
2023-05-18T06:43:40.198Z,102740.38
2023-05-18T06:45:28.503Z,102785.28
2023-05-18T06:46:24.434Z,102750.19
2023-05-18T06:48:02.981Z,102794.00
2023-05-18T06:48:56.326Z,102752.72
2023-05-18T06:50:31.422Z,102794.75
2023-05-18T06:51:24.135Z,102751.69
2023-05-18T06:52:58.685Z,102792.03
2023-05-18T06:53:51.943Z,102754.00
2023-05-18T06:55:25.858Z,102798.13
2023-05-18T06:56:19.978Z,102753.75
2023-05-18T06:57:56.783Z,102797.06
2023-05-18T06:58:48.270Z,102748.53
2023-05-18T07:00:24.632Z,102793.28
2023-05-18T07:01:17.974Z,102753.78
2023-05-18T07:02:51.957Z,102798.31
2023-05-18T07:03:45.813Z,102759.41
2023-05-18T07:05:19.109Z,102795.47
2023-05-18T07:06:13.533Z,102761.50
2023-05-18T07:07:47.526Z,102805.88
2023-05-18T07:08:41.231Z,102759.41
2023-05-18T07:10:14.697Z,102803.06
2023-05-18T07:11:09.844Z,102769.47
2023-05-18T07:12:41.819Z,102806.41
2023-05-18T07:13:37.532Z,102763.34
2023-05-18T07:15:09.535Z,102804.41
2023-05-18T07:16:05.327Z,102771.31
2023-05-18T07:17:36.750Z,102805.06
2023-05-18T07:18:34.033Z,102768.41
2023-05-18T07:20:06.668Z,102810.91
2023-05-18T07:21:01.728Z,102766.91
2023-05-18T07:22:34.475Z,102807.09
2023-05-18T07:23:29.521Z,102762.09
2023-05-18T07:25:01.598Z,102816.53
2023-05-18T07:25:57.941Z,102765.25
2023-05-18T07:27:28.738Z,102808.16
2023-05-18T07:28:25.833Z,102766.06
2023-05-18T07:29:56.025Z,102814.13
2023-05-18T07:30:53.504Z,102770.25
2023-05-18T07:32:23.329Z,102809.28
2023-05-18T07:33:21.274Z,102778.63
2023-05-18T07:34:50.813Z,102814.38
2023-05-18T07:35:48.938Z,102781.34
2023-05-18T07:37:17.933Z,102819.44
2023-05-18T07:38:16.603Z,102774.88
2023-05-18T07:39:45.340Z,102823.50
2023-05-18T07:40:44.264Z,102783.63
2023-05-18T07:42:12.479Z,102825.72
2023-05-18T07:43:12.013Z,102780.28
2023-05-18T07:44:39.565Z,102828.03
2023-05-18T07:45:39.686Z,102789.47
2023-05-18T07:47:06.826Z,102822.53
2023-05-18T07:48:08.009Z,102786.13
2023-05-18T07:49:33.942Z,102835.50
2023-05-18T07:50:35.864Z,102794.94
2023-05-18T07:52:02.486Z,102827.16
2023-05-18T07:53:04.540Z,102789.06
2023-05-18T07:54:29.568Z,102832.25
2023-05-18T07:55:32.732Z,102784.88
2023-05-18T07:56:59.151Z,102832.88
2023-05-18T07:58:01.136Z,102799.94
2023-05-18T07:59:27.488Z,102837.00
2023-05-18T08:00:29.133Z,102791.34
2023-05-18T08:01:55.013Z,102842.16
2023-05-18T08:02:57.164Z,102795.94
2023-05-18T08:04:22.212Z,102842.94
2023-05-18T08:05:24.902Z,102794.84
2023-05-18T08:06:49.312Z,102837.41
2023-05-18T08:07:52.653Z,102794.84
2023-05-18T08:09:16.563Z,102837.19
2023-05-18T08:10:20.419Z,102793.34
2023-05-18T08:11:45.057Z,102844.09
2023-05-18T08:12:48.189Z,102801.94
2023-05-18T08:14:12.194Z,102841.94
2023-05-18T08:15:16.149Z,102795.66
2023-05-18T08:16:39.930Z,102840.72
2023-05-18T08:17:43.974Z,102794.38
2023-05-18T08:19:07.049Z,102834.19
2023-05-18T08:20:12.202Z,102803.38
2023-05-18T08:21:34.567Z,102832.88
2023-05-18T08:22:39.942Z,102804.63
2023-05-18T08:24:03.498Z,102838.88
2023-05-18T08:25:08.132Z,102801.03
2023-05-18T08:26:30.618Z,102844.09
2023-05-18T08:27:35.779Z,102797.00
2023-05-18T08:28:57.722Z,102831.50
2023-05-18T08:30:03.874Z,102798.25
2023-05-18T08:31:24.845Z,102829.34
2023-05-18T08:32:32.646Z,102790.28
2023-05-18T08:33:51.983Z,102834.34
2023-05-18T08:35:00.460Z,102787.97
2023-05-18T08:36:19.133Z,102823.31
2023-05-18T08:37:29.478Z,102788.75
2023-05-18T08:38:46.263Z,102822.19
2023-05-18T08:39:59.589Z,102782.22
2023-05-18T08:41:23.384Z,102817.34
2023-05-18T08:42:48.715Z,102786.19
2023-05-18T08:43:59.458Z,102815.28
2023-05-18T08:45:36.790Z,102782.16
2023-05-18T08:46:33.624Z,102815.00
2023-05-18T08:48:06.060Z,102780.25
2023-05-18T08:49:02.991Z,102816.56
2023-05-18T08:50:34.059Z,102784.00
2023-05-18T08:51:34.890Z,102813.31
2023-05-18T08:53:05.366Z,102778.94
2023-05-18T08:54:03.431Z,102813.06
2023-05-18T08:55:37.527Z,102774.09
2023-05-18T08:56:33.755Z,102810.31
2023-05-18T08:58:08.065Z,102766.28
2023-05-18T08:59:08.441Z,102806.66
2023-05-18T09:00:36.174Z,102771.31
2023-05-18T09:01:36.068Z,102803.09
2023-05-18T09:03:06.039Z,102765.88
2023-05-18T09:04:04.269Z,102808.44
2023-05-18T09:05:34.286Z,102765.88
2023-05-18T09:06:32.882Z,102803.09
2023-05-18T09:08:03.730Z,102767.06
2023-05-18T09:09:04.378Z,102798.00
2023-05-18T09:10:33.793Z,102759.97
2023-05-18T09:11:33.641Z,102804.41
2023-05-18T09:13:02.935Z,102763.31
2023-05-18T09:14:01.404Z,102809.78
2023-05-18T09:15:30.770Z,102749.88
2023-05-18T09:16:30.243Z,102794.50
2023-05-18T09:17:58.703Z,102762.19
2023-05-18T09:18:57.736Z,102805.22
2023-05-18T09:20:27.053Z,102758.34
2023-05-18T09:21:24.858Z,102807.97
2023-05-18T09:22:54.825Z,102757.72
2023-05-18T09:23:52.394Z,102803.59
2023-05-18T09:25:25.235Z,102756.53
2023-05-18T09:26:21.079Z,102799.97
2023-05-18T09:27:53.307Z,102742.28
2023-05-18T09:28:52.644Z,102791.91
2023-05-18T09:30:21.401Z,102745.63
2023-05-18T09:31:21.583Z,102790.81
2023-05-18T09:32:49.320Z,102747.84
2023-05-18T09:33:50.359Z,102787.19
2023-05-18T09:35:17.042Z,102744.19
2023-05-18T09:36:17.709Z,102789.84
2023-05-18T09:37:44.763Z,102751.72
2023-05-18T09:38:46.840Z,102790.50
2023-05-18T09:40:12.683Z,102751.72
2023-05-18T09:41:17.238Z,102795.75
2023-05-18T09:42:42.758Z,102748.31
2023-05-18T09:43:47.450Z,102790.28
2023-05-18T09:45:23.847Z,102751.00
2023-05-18T09:46:14.726Z,102779.56
2023-05-18T09:47:52.251Z,102755.53
2023-05-18T09:48:44.303Z,102777.69
2023-05-18T09:50:21.050Z,102749.59
2023-05-18T09:51:17.596Z,102773.81
2023-05-18T09:52:52.228Z,102745.44
2023-05-18T09:54:06.180Z,102773.44
2023-05-18T09:55:20.938Z,102749.59
2023-05-18T09:56:36.143Z,102784.81
2023-05-18T09:57:50.094Z,102750.53
2023-05-18T09:59:14.673Z,102794.72
2023-05-18T10:00:20.287Z,102742.84
2023-05-18T10:02:01.062Z,102782.13
2023-05-18T10:02:52.472Z,102739.56
2023-05-18T10:04:41.645Z,102778.38
2023-05-18T10:05:22.190Z,102738.22
2023-05-18T10:07:13.411Z,102777.22
2023-05-18T10:07:53.291Z,102743.56
2023-05-18T10:09:41.636Z,102776.09
2023-05-18T10:10:22.558Z,102741.16
2023-05-18T10:12:17.202Z,102775.97
2023-05-18T10:12:54.300Z,102739.25
2023-05-18T10:14:46.115Z,102777.44
2023-05-18T10:15:23.717Z,102736.31
2023-05-18T10:17:16.721Z,102777.16
2023-05-18T10:17:55.952Z,102734.34
2023-05-18T10:19:46.465Z,102766.31
2023-05-18T10:20:26.768Z,102741.44
2023-05-18T10:22:17.761Z,102764.28
2023-05-18T10:22:56.321Z,102740.91
2023-05-18T10:24:50.110Z,102765.84
2023-05-18T10:25:26.931Z,102732.06
2023-05-18T10:27:20.501Z,102755.06
2023-05-18T10:28:00.391Z,102721.44
2023-05-18T10:29:50.013Z,102763.91
2023-05-18T10:30:28.384Z,102725.53
2023-05-18T10:32:18.246Z,102758.53
2023-05-18T10:32:57.751Z,102726.44
2023-05-18T10:34:46.036Z,102764.00
2023-05-18T10:35:28.310Z,102715.44
2023-05-18T10:37:14.592Z,102756.94
2023-05-18T10:37:57.760Z,102716.41
2023-05-18T10:39:45.590Z,102754.34
2023-05-18T10:40:26.763Z,102710.06
2023-05-18T10:42:14.917Z,102760.59
2023-05-18T10:42:55.656Z,102715.66
2023-05-18T10:44:43.075Z,102756.81
2023-05-18T10:45:23.675Z,102713.09
2023-05-18T10:47:11.930Z,102763.78
2023-05-18T10:47:54.481Z,102710.97
2023-05-18T10:49:40.395Z,102753.84
2023-05-18T10:50:24.052Z,102707.00
2023-05-18T10:52:08.954Z,102749.28
2023-05-18T10:52:52.722Z,102696.69
2023-05-18T10:54:36.980Z,102750.03
2023-05-18T10:55:20.893Z,102703.03
2023-05-18T10:57:04.209Z,102754.34
2023-05-18T10:57:53.034Z,102708.19
2023-05-18T10:59:31.606Z,102749.09
2023-05-18T11:00:21.076Z,102703.44
2023-05-18T11:02:01.337Z,102749.00
2023-05-18T11:02:50.794Z,102700.91
2023-05-18T11:04:29.951Z,102751.78
2023-05-18T11:05:25.426Z,102696.06
2023-05-18T11:07:00.691Z,102738.56
2023-05-18T11:08:01.774Z,102692.72
2023-05-18T11:09:32.421Z,102741.41
2023-05-18T11:10:43.398Z,102690.59
2023-05-18T11:12:00.289Z,102743.00
2023-05-18T11:13:11.559Z,102697.63
2023-05-18T11:14:32.362Z,102736.69
2023-05-18T11:15:54.486Z,102691.25
2023-05-18T11:17:22.308Z,102743.78
2023-05-18T11:18:39.889Z,102699.66
2023-05-18T11:20:07.988Z,102741.78
2023-05-18T11:21:28.725Z,102691.47
2023-05-18T11:22:56.938Z,102727.41
2023-05-18T11:24:17.371Z,102684.13
2023-05-18T11:25:23.986Z,102734.38
2023-05-18T11:27:12.394Z,102682.50
2023-05-18T11:27:57.243Z,102725.22
2023-05-18T11:29:48.359Z,102681.06
2023-05-18T11:30:28.498Z,102724.97
2023-05-18T11:32:34.092Z,102679.66
2023-05-18T11:33:10.210Z,102726.69
2023-05-18T11:35:02.149Z,102682.66
2023-05-18T11:35:56.998Z,102722.91
2023-05-18T11:37:38.797Z,102675.03
2023-05-18T11:38:46.824Z,102726.25
2023-05-18T11:40:10.162Z,102682.63
2023-05-18T11:41:39.041Z,102726.91
2023-05-18T11:42:38.988Z,102673.72
2023-05-18T11:44:18.587Z,102725.81
2023-05-18T11:45:11.467Z,102669.09
2023-05-18T11:46:54.825Z,102712.19
2023-05-18T11:47:41.077Z,102675.63
2023-05-18T11:49:27.171Z,102720.81
2023-05-18T11:50:12.024Z,102674.09
2023-05-18T11:52:07.384Z,102716.81
2023-05-18T11:52:51.949Z,102666.59
2023-05-18T11:54:45.214Z,102711.84
2023-05-18T11:55:20.627Z,102661.63
2023-05-18T11:57:15.347Z,102707.94
2023-05-18T11:57:54.806Z,102654.94
2023-05-18T11:59:45.039Z,102696.75
2023-05-18T12:00:22.656Z,102658.75
2023-05-18T12:02:13.884Z,102695.31
2023-05-18T12:02:52.688Z,102654.13
2023-05-18T12:04:52.998Z,102697.47
2023-05-18T12:05:20.605Z,102658.63
2023-05-18T12:07:20.897Z,102696.03
2023-05-18T12:07:55.887Z,102652.81
2023-05-18T12:09:48.724Z,102692.00
2023-05-18T12:10:23.746Z,102649.47
2023-05-18T12:12:19.899Z,102683.28
2023-05-18T12:12:54.815Z,102661.13
2023-05-18T12:14:56.099Z,102697.34
2023-05-18T12:15:23.344Z,102646.50
2023-05-18T12:17:24.536Z,102691.66
2023-05-18T12:17:51.946Z,102644.00
2023-05-18T12:19:51.830Z,102690.28
2023-05-18T12:20:21.489Z,102650.53
2023-05-18T12:22:19.026Z,102688.94
2023-05-18T12:22:54.982Z,102658.41
2023-05-18T12:24:46.229Z,102678.66
2023-05-18T12:25:24.354Z,102655.41
2023-05-18T12:27:13.488Z,102684.47
2023-05-18T12:27:53.137Z,102656.59
2023-05-18T12:29:42.269Z,102691.34
2023-05-18T12:30:25.695Z,102660.75
2023-05-18T12:32:11.981Z,102673.22
2023-05-18T12:32:55.068Z,102651.50
2023-05-18T12:34:39.679Z,102680.34
2023-05-18T12:35:27.264Z,102647.56
2023-05-18T12:37:10.214Z,102676.69
2023-05-18T12:38:01.483Z,102653.16
2023-05-18T12:39:37.874Z,102672.44
2023-05-18T12:40:44.559Z,102644.59
2023-05-18T12:42:15.315Z,102677.19
2023-05-18T12:43:13.275Z,102644.56
2023-05-18T12:44:44.274Z,102677.53
2023-05-18T12:45:41.166Z,102647.75
2023-05-18T12:47:12.570Z,102673.38
2023-05-18T12:48:10.725Z,102643.72
2023-05-18T12:49:41.017Z,102677.09
2023-05-18T12:50:47.084Z,102656.38
2023-05-18T12:52:12.805Z,102674.41
2023-05-18T12:53:14.617Z,102645.84
2023-05-18T12:55:00.718Z,102674.22
2023-05-18T12:55:42.205Z,102648.72
2023-05-18T12:57:28.076Z,102681.50
2023-05-18T12:58:18.848Z,102650.50
2023-05-18T12:59:55.859Z,102677.22
2023-05-18T13:00:48.501Z,102640.25
2023-05-18T13:02:35.874Z,102678.34
2023-05-18T13:03:22.071Z,102639.84
2023-05-18T13:05:08.820Z,102667.59
2023-05-18T13:06:07.381Z,102639.63
2023-05-18T13:07:40.802Z,102672.81
2023-05-18T13:08:36.006Z,102639.28
2023-05-18T13:10:13.554Z,102662.81
2023-05-18T13:11:12.623Z,102639.75
2023-05-18T13:12:51.506Z,102672.50
2023-05-18T13:14:02.159Z,102636.06
2023-05-18T13:15:21.029Z,102669.03
2023-05-18T13:16:34.781Z,102633.31
2023-05-18T13:18:03.429Z,102661.88
2023-05-18T13:19:05.332Z,102623.53
2023-05-18T13:20:36.825Z,102653.41
2023-05-18T13:21:34.277Z,102615.72
2023-05-18T13:23:10.406Z,102648.22
2023-05-18T13:24:02.486Z,102615.22
2023-05-18T13:25:38.212Z,102652.94
2023-05-18T13:26:31.168Z,102617.72
2023-05-18T13:28:06.215Z,102647.03
2023-05-18T13:29:00.220Z,102611.88
2023-05-18T13:30:33.984Z,102644.59
2023-05-18T13:31:29.701Z,102610.34
2023-05-18T13:33:01.424Z,102644.84
2023-05-18T13:33:57.723Z,102610.44
2023-05-18T13:35:29.329Z,102649.50
2023-05-18T13:36:26.122Z,102611.38
2023-05-18T13:37:56.862Z,102646.44
2023-05-18T13:38:54.171Z,102607.31
2023-05-18T13:40:25.600Z,102647.88
2023-05-18T13:41:21.809Z,102612.53
2023-05-18T13:42:53.309Z,102636.16
2023-05-18T13:43:49.551Z,102610.59
2023-05-18T13:45:23.280Z,102630.84
2023-05-18T13:46:17.215Z,102604.66
2023-05-18T13:47:52.067Z,102639.34
2023-05-18T13:48:44.807Z,102612.19
2023-05-18T13:50:20.955Z,102630.88
2023-05-18T13:51:12.501Z,102607.66
2023-05-18T13:52:48.537Z,102626.00
2023-05-18T13:53:42.156Z,102593.84
2023-05-18T13:55:15.730Z,102620.97
2023-05-18T13:56:09.952Z,102585.75
2023-05-18T13:57:44.402Z,102617.50
2023-05-18T13:58:37.530Z,102591.69
2023-05-18T14:00:13.117Z,102620.09
2023-05-18T14:01:08.213Z,102589.69
2023-05-18T14:02:41.784Z,102612.81
2023-05-18T14:03:36.705Z,102589.94
2023-05-18T14:05:10.239Z,102607.94
2023-05-18T14:06:04.709Z,102584.81
2023-05-18T14:07:42.543Z,102608.72
2023-05-18T14:08:32.311Z,102575.78
2023-05-18T14:10:11.570Z,102605.66
2023-05-18T14:10:59.899Z,102567.19
2023-05-18T14:12:39.493Z,102607.22
2023-05-18T14:13:27.488Z,102570.03
2023-05-18T14:15:07.214Z,102601.66
2023-05-18T14:15:55.071Z,102575.38
2023-05-18T14:17:34.797Z,102601.66
2023-05-18T14:18:22.708Z,102574.03